Terminal Aerodrome Forecast
Issued by NWS

Home | Current Version | Previous Version | Graphics & Text | Print | Product List | Glossary On
Versions: 1 2 3 4 5 6 7 8 9 10 11 12 13 14 15 16 17 18 19
000
FTUS43 KOAX 271700
TAFCDR
TAF
KCDR 271727Z 2718/2818 06006KT P6SM VCTS SCT015CB BKN040
      TEMPO 2718/2722 4SM -TSRA BR OVC015CB
     FM280300 30005KT P6SM VCSH BKN040 OVC100=

USA.gov is the U.S. government's official web portal to all federal, state and local government web resources and services.